createdAt,value
2019-03-21T00:00:27.578Z,9.93
2019-03-21T00:02:56.298Z,10.00
2019-03-21T00:05:27.099Z,10.30
2019-03-21T00:07:55.522Z,9.23
2019-03-21T00:10:33.170Z,10.03
2019-03-21T00:13:01.627Z,9.17
2019-03-21T00:15:56.873Z,10.60
2019-03-21T00:18:25.342Z,7.43
2019-03-21T00:20:53.755Z,9.23
2019-03-21T00:23:22.202Z,10.27
2019-03-21T00:25:51.002Z,11.00
2019-03-21T00:28:19.449Z,8.67
2019-03-21T00:30:48.270Z,7.27
2019-03-21T00:33:16.703Z,5.97
2019-03-21T00:35:45.158Z,6.87
2019-03-21T00:38:13.910Z,8.43
2019-03-21T00:40:50.265Z,5.60
2019-03-21T00:43:18.744Z,4.90
2019-03-21T00:45:47.546Z,6.60
2019-03-21T00:48:19.018Z,6.27
2019-03-21T00:50:47.484Z,5.07
2019-03-21T00:53:16.010Z,5.47
2019-03-21T00:55:51.099Z,5.97
2019-03-21T00:58:19.531Z,8.27
2019-03-21T01:00:59.447Z,6.00
2019-03-21T01:03:27.919Z,7.10
2019-03-21T01:05:56.375Z,7.43
2019-03-21T01:08:24.790Z,6.83
2019-03-21T01:10:53.631Z,5.53
2019-03-21T01:13:23.508Z,5.00
2019-03-21T01:15:51.970Z,4.17
2019-03-21T01:18:20.422Z,6.10
2019-03-21T01:20:49.200Z,8.50
2019-03-21T01:23:17.663Z,8.73
2019-03-21T01:25:49.518Z,6.97
2019-03-21T01:28:17.951Z,6.50
2019-03-21T01:30:46.411Z,6.07
2019-03-21T01:33:14.866Z,6.43
2019-03-21T01:35:43.328Z,5.87
2019-03-21T01:38:11.774Z,7.73
2019-03-21T01:40:58.027Z,5.93
2019-03-21T01:43:26.465Z,4.87
2019-03-21T01:45:54.936Z,5.50
2019-03-21T01:48:23.368Z,8.27
2019-03-21T01:50:52.151Z,5.77
2019-03-21T01:53:20.605Z,4.77
2019-03-21T01:55:49.404Z,6.57
2019-03-21T01:58:17.845Z,5.70
2019-03-21T02:00:52.154Z,5.47
2019-03-21T02:03:20.593Z,5.73
2019-03-21T02:05:49.374Z,5.80
2019-03-21T02:08:17.830Z,5.67
2019-03-21T02:10:46.272Z,3.67
2019-03-21T02:13:14.714Z,5.37
2019-03-21T02:15:43.503Z,6.93
2019-03-21T02:18:12.271Z,4.73
2019-03-21T02:20:40.850Z,5.57
2019-03-21T02:23:09.321Z,5.13
2019-03-21T02:25:42.991Z,6.83
2019-03-21T02:28:11.717Z,5.43
2019-03-21T02:30:42.756Z,4.40
2019-03-21T02:33:26.276Z,7.00
2019-03-21T02:35:54.811Z,6.43
2019-03-21T02:38:23.272Z,4.73
2019-03-21T02:40:54.810Z,6.87
2019-03-21T02:43:23.298Z,4.87
2019-03-21T02:45:51.790Z,6.20
2019-03-21T02:48:20.251Z,5.43
2019-03-21T02:50:48.711Z,5.57
2019-03-21T02:53:17.527Z,5.87
2019-03-21T02:55:45.951Z,7.93
2019-03-21T02:58:14.439Z,6.30
2019-03-21T03:00:44.930Z,7.27
2019-03-21T03:03:13.383Z,6.20
2019-03-21T03:05:42.292Z,8.30
2019-03-21T03:08:10.796Z,5.00
2019-03-21T03:10:44.840Z,6.70
2019-03-21T03:13:13.569Z,5.70
2019-03-21T03:15:43.292Z,7.73
2019-03-21T03:18:16.677Z,4.90
2019-03-21T03:20:45.126Z,6.03
2019-03-21T03:23:13.575Z,6.30
2019-03-21T03:25:41.998Z,6.37
2019-03-21T03:28:19.390Z,6.33
2019-03-21T03:30:48.963Z,6.63
2019-03-21T03:33:17.416Z,6.47
2019-03-21T03:35:45.858Z,4.87
2019-03-21T03:38:14.312Z,7.60
2019-03-21T03:40:51.850Z,6.43
2019-03-21T03:43:20.713Z,6.00
2019-03-21T03:45:49.153Z,7.47
2019-03-21T03:48:19.840Z,4.83
2019-03-21T03:50:48.526Z,7.23
2019-03-21T03:53:16.994Z,5.17
2019-03-21T03:55:45.895Z,4.93
2019-03-21T03:58:32.473Z,4.47
2019-03-21T04:01:01.463Z,5.57
2019-03-21T04:03:29.931Z,4.80
2019-03-21T04:05:58.828Z,6.00
2019-03-21T04:08:27.275Z,4.60
2019-03-21T04:10:58.192Z,5.47
2019-03-21T04:13:26.704Z,4.47
2019-03-21T04:15:55.139Z,4.27
2019-03-21T04:18:25.377Z,10.53
2019-03-21T04:20:59.983Z,4.47
2019-03-21T04:23:28.435Z,6.33
2019-03-21T04:26:31.463Z,5.70
2019-03-21T04:28:59.926Z,4.90
2019-03-21T04:31:28.375Z,5.80
2019-03-21T04:34:02.740Z,5.23
2019-03-21T04:36:31.177Z,5.73
2019-03-21T04:38:59.649Z,7.77
2019-03-21T04:41:28.078Z,7.00
2019-03-21T04:43:56.537Z,5.60
2019-03-21T04:46:24.978Z,8.43
2019-03-21T04:48:53.421Z,4.60
2019-03-21T04:51:22.190Z,8.30
2019-03-21T04:53:53.296Z,5.80
2019-03-21T04:56:20.828Z,5.97
2019-03-21T04:58:49.292Z,6.93
2019-03-21T05:01:17.748Z,7.67
2019-03-21T05:03:46.494Z,6.90
2019-03-21T05:06:14.939Z,5.37
2019-03-21T05:08:43.400Z,7.33
2019-03-21T05:11:11.860Z,5.73
2019-03-21T05:13:40.317Z,5.83
2019-03-21T05:16:14.816Z,6.40
2019-03-21T05:18:47.860Z,5.40
2019-03-21T05:21:20.988Z,8.60
2019-03-21T05:23:49.434Z,9.90
2019-03-21T05:26:17.871Z,11.13
2019-03-21T05:28:46.355Z,7.53
2019-03-21T05:31:23.975Z,8.40
2019-03-21T05:33:52.437Z,6.87
2019-03-21T05:36:20.903Z,7.70
2019-03-21T05:38:49.369Z,7.57
2019-03-21T05:41:18.164Z,7.57
2019-03-21T05:43:53.104Z,5.83
2019-03-21T05:46:26.503Z,6.87
2019-03-21T05:48:52.211Z,5.17
2019-03-21T05:51:20.996Z,5.53
2019-03-21T05:53:49.447Z,6.47
2019-03-21T05:56:17.886Z,6.73
2019-03-21T05:58:46.360Z,6.00
2019-03-21T06:01:15.207Z,7.63
2019-03-21T06:03:50.817Z,6.73
2019-03-21T06:06:25.234Z,5.53
2019-03-21T06:08:53.936Z,5.83
2019-03-21T06:11:22.971Z,7.07
2019-03-21T06:13:51.743Z,5.83
2019-03-21T06:16:20.202Z,7.43
2019-03-21T06:18:57.107Z,7.60
2019-03-21T06:21:43.418Z,9.17
2019-03-21T06:24:20.479Z,9.13
2019-03-21T06:26:52.002Z,7.70
2019-03-21T06:29:20.450Z,12.27
2019-03-21T06:31:48.907Z,6.20
2019-03-21T06:34:17.383Z,7.00
2019-03-21T06:36:46.163Z,7.27
2019-03-21T06:39:14.962Z,6.60
2019-03-21T06:41:43.390Z,7.00
2019-03-21T06:44:11.828Z,4.23
2019-03-21T06:46:48.743Z,7.60
2019-03-21T06:49:10.443Z,6.23
2019-03-21T06:51:40.548Z,6.37
2019-03-21T06:54:08.983Z,4.60
2019-03-21T06:56:37.417Z,6.77
2019-03-21T06:59:05.838Z,8.00
2019-03-21T07:01:34.276Z,9.90
2019-03-21T07:04:07.109Z,6.23
2019-03-21T07:06:32.884Z,6.13
2019-03-21T07:09:01.605Z,6.53
2019-03-21T07:11:30.087Z,6.50
2019-03-21T07:13:58.520Z,7.07
2019-03-21T07:16:27.335Z,7.20
2019-03-21T07:18:55.762Z,5.63
2019-03-21T07:21:24.208Z,5.10
2019-03-21T07:23:52.626Z,5.53
2019-03-21T07:26:28.416Z,7.60
2019-03-21T07:29:04.414Z,5.47
2019-03-21T07:31:33.992Z,8.97
2019-03-21T07:34:02.417Z,8.13
2019-03-21T07:36:30.908Z,5.73
2019-03-21T07:38:59.343Z,7.97
2019-03-21T07:41:27.783Z,8.57
2019-03-21T07:43:56.502Z,6.20
2019-03-21T07:46:25.319Z,6.80
2019-03-21T07:48:53.753Z,4.73
2019-03-21T07:51:22.563Z,6.83
2019-03-21T07:53:51.023Z,8.50
2019-03-21T07:56:36.780Z,12.70
2019-03-21T07:59:06.350Z,7.77
2019-03-21T08:01:34.810Z,9.87
2019-03-21T08:04:03.356Z,7.77
2019-03-21T08:06:31.968Z,12.40
2019-03-21T08:09:00.754Z,14.07
2019-03-21T08:11:29.555Z,10.10
2019-03-21T08:14:10.152Z,10.17
2019-03-21T08:16:41.638Z,8.67
2019-03-21T08:19:10.065Z,6.43
2019-03-21T08:21:42.672Z,5.80
2019-03-21T08:24:11.103Z,9.50
2019-03-21T08:26:39.542Z,5.90
2019-03-21T08:29:08.060Z,10.53
2019-03-21T08:31:36.847Z,8.00
2019-03-21T08:34:05.723Z,6.77
2019-03-21T08:36:34.160Z,5.87
2019-03-21T08:39:02.948Z,6.23
2019-03-21T08:41:31.394Z,5.70
2019-03-21T08:43:59.828Z,10.10
2019-03-21T08:46:28.634Z,3.50
2019-03-21T08:48:57.055Z,8.63
2019-03-21T08:51:25.801Z,4.63
2019-03-21T08:53:54.590Z,5.73
2019-03-21T08:56:23.039Z,4.27
2019-03-21T08:58:51.463Z,5.00
2019-03-21T09:01:20.966Z,2.90
2019-03-21T09:03:49.428Z,4.00
2019-03-21T09:06:18.317Z,6.70
2019-03-21T09:08:47.111Z,5.30
2019-03-21T09:11:15.538Z,4.70
2019-03-21T09:13:44.050Z,8.67
2019-03-21T09:16:12.476Z,3.83
2019-03-21T09:18:46.736Z,4.17
2019-03-21T09:21:19.521Z,3.83
2019-03-21T09:23:45.670Z,4.67
2019-03-21T09:26:14.095Z,5.60
2019-03-21T09:28:42.555Z,3.80
2019-03-21T09:31:11.007Z,7.70
2019-03-21T09:33:39.783Z,4.77
2019-03-21T09:36:08.771Z,7.63
2019-03-21T09:38:37.207Z,6.17
2019-03-21T09:41:05.654Z,4.43
2019-03-21T09:43:34.113Z,3.10
2019-03-21T09:46:02.555Z,5.00
2019-03-21T09:48:31.007Z,6.13
2019-03-21T09:50:59.468Z,4.80
2019-03-21T09:53:27.912Z,4.77
2019-03-21T09:55:57.259Z,3.40
2019-03-21T09:58:25.714Z,4.90
2019-03-21T10:00:54.146Z,7.03
2019-03-21T10:03:22.621Z,2.77
2019-03-21T10:05:51.460Z,9.40
2019-03-21T10:08:20.123Z,5.63
2019-03-21T10:10:48.932Z,5.93
2019-03-21T10:13:17.364Z,5.93
2019-03-21T10:15:45.787Z,4.40
2019-03-21T10:18:14.562Z,4.43
2019-03-21T10:21:19.731Z,10.00
2019-03-21T10:23:48.178Z,6.13
2019-03-21T10:26:16.629Z,4.87
2019-03-21T10:28:45.091Z,4.23
2019-03-21T10:31:13.830Z,7.80
2019-03-21T10:33:42.286Z,5.33
2019-03-21T10:36:10.811Z,4.90
2019-03-21T10:38:39.495Z,3.93
2019-03-21T10:41:08.094Z,4.77
2019-03-21T10:43:36.550Z,4.47
2019-03-21T10:46:05.190Z,2.97
2019-03-21T10:48:33.625Z,7.43
2019-03-21T10:51:07.026Z,5.23
2019-03-21T10:53:35.775Z,4.43
2019-03-21T10:56:05.403Z,4.33
2019-03-21T10:58:33.838Z,5.70
2019-03-21T11:01:06.408Z,8.20
2019-03-21T11:03:34.938Z,3.63
2019-03-21T11:06:03.401Z,4.60
2019-03-21T11:08:31.832Z,5.77
2019-03-21T11:11:00.272Z,8.00
2019-03-21T11:13:28.728Z,7.20
2019-03-21T11:15:57.414Z,6.07
2019-03-21T11:18:35.776Z,5.70
2019-03-21T11:20:56.033Z,4.90
2019-03-21T11:23:24.522Z,5.47
2019-03-21T11:25:53.386Z,4.20
2019-03-21T11:28:21.810Z,5.37
2019-03-21T11:30:50.286Z,6.67
2019-03-21T11:33:18.694Z,5.53
2019-03-21T11:35:47.146Z,7.23
2019-03-21T11:38:15.578Z,6.43
2019-03-21T11:40:44.375Z,5.37
2019-03-21T11:43:12.801Z,6.93
2019-03-21T11:45:41.266Z,6.90
2019-03-21T11:48:09.977Z,6.20
2019-03-21T11:50:38.491Z,7.40
2019-03-21T11:53:06.915Z,5.50
2019-03-21T11:55:35.379Z,6.10
2019-03-21T11:58:04.038Z,13.10
2019-03-21T12:00:42.641Z,4.30
2019-03-21T12:03:04.262Z,7.20
2019-03-21T12:05:32.830Z,4.77
2019-03-21T12:08:01.233Z,4.37
2019-03-21T12:10:29.697Z,6.73
2019-03-21T12:12:58.146Z,6.00
2019-03-21T12:15:26.888Z,3.03
2019-03-21T12:17:55.314Z,3.73
2019-03-21T12:20:33.386Z,3.20
2019-03-21T12:23:01.822Z,4.53
2019-03-21T12:25:30.283Z,5.57
2019-03-21T12:28:01.386Z,5.63
2019-03-21T12:30:32.190Z,8.23
2019-03-21T12:33:02.778Z,7.50
2019-03-21T12:35:31.546Z,4.27
2019-03-21T12:38:00.246Z,4.73
2019-03-21T12:40:29.188Z,7.03
2019-03-21T12:42:57.626Z,3.40
2019-03-21T12:45:26.260Z,4.20
2019-03-21T12:47:55.041Z,2.47
2019-03-21T12:50:23.567Z,4.83
2019-03-21T12:52:52.118Z,4.17
2019-03-21T12:55:20.564Z,3.93
2019-03-21T12:57:49.351Z,4.47
2019-03-21T13:00:35.373Z,3.07
2019-03-21T13:03:04.645Z,2.80
2019-03-21T13:05:34.086Z,3.67
2019-03-21T13:08:02.532Z,4.03
2019-03-21T13:10:30.982Z,3.17
2019-03-21T13:12:59.406Z,5.00
2019-03-21T13:15:30.260Z,4.47
2019-03-21T13:18:00.253Z,3.10
2019-03-21T13:20:28.415Z,2.93
2019-03-21T13:22:57.145Z,2.80
2019-03-21T13:25:25.579Z,4.93
2019-03-21T13:27:55.243Z,5.93
2019-03-21T13:30:23.763Z,3.70
2019-03-21T13:32:52.270Z,2.63
2019-03-21T13:35:31.669Z,4.20
2019-03-21T13:38:24.218Z,2.90
2019-03-21T13:40:52.666Z,4.47
2019-03-21T13:43:21.502Z,3.10
2019-03-21T13:45:50.013Z,5.73
2019-03-21T13:48:18.447Z,3.23
2019-03-21T13:50:46.900Z,5.57
2019-03-21T13:53:18.874Z,4.73
2019-03-21T13:55:45.882Z,3.17
2019-03-21T13:58:14.326Z,4.07
2019-03-21T14:00:42.774Z,7.40
2019-03-21T14:03:25.371Z,4.93
2019-03-21T14:05:55.179Z,4.90
2019-03-21T14:08:32.323Z,4.60
2019-03-21T14:11:01.176Z,4.20
2019-03-21T14:13:29.651Z,4.53
2019-03-21T14:16:00.963Z,3.47
2019-03-21T14:18:29.482Z,3.63
2019-03-21T14:20:58.216Z,3.10
2019-03-21T14:23:26.682Z,5.00
2019-03-21T14:25:55.435Z,6.23
2019-03-21T14:28:23.887Z,3.77
2019-03-21T14:30:56.063Z,4.33
2019-03-21T14:33:24.538Z,3.43
2019-03-21T14:35:52.975Z,5.40
2019-03-21T14:38:26.014Z,4.37
2019-03-21T14:40:51.978Z,5.27
2019-03-21T14:43:26.114Z,4.70
2019-03-21T14:45:54.855Z,5.73
2019-03-21T14:48:23.354Z,4.13
2019-03-21T14:50:51.856Z,4.17
2019-03-21T14:53:28.670Z,6.53
2019-03-21T14:55:50.735Z,5.40
2019-03-21T14:58:19.506Z,3.80
2019-03-21T15:00:48.009Z,6.70
2019-03-21T15:03:16.466Z,3.80
2019-03-21T15:05:45.233Z,5.63
2019-03-21T15:08:14.036Z,3.40
2019-03-21T15:10:42.466Z,3.77
2019-03-21T15:13:10.928Z,6.60
2019-03-21T15:15:39.353Z,4.57
2019-03-21T15:18:07.802Z,4.30
2019-03-21T15:20:36.260Z,6.80
2019-03-21T15:23:12.739Z,4.20
2019-03-21T15:25:41.323Z,4.37
2019-03-21T15:28:10.154Z,3.00
2019-03-21T15:30:38.609Z,4.40
2019-03-21T15:33:07.418Z,2.87
2019-03-21T15:35:35.866Z,3.07
2019-03-21T15:38:04.318Z,5.60
2019-03-21T15:40:32.751Z,5.80
2019-03-21T15:43:01.199Z,3.67
2019-03-21T15:45:29.639Z,5.00
2019-03-21T15:47:58.096Z,6.30
2019-03-21T15:50:31.166Z,3.57
2019-03-21T15:53:07.555Z,2.93
2019-03-21T15:55:40.433Z,4.07
2019-03-21T15:58:09.142Z,3.70
2019-03-21T16:00:40.629Z,3.03
2019-03-21T16:03:10.882Z,3.00
2019-03-21T16:05:40.489Z,4.57
2019-03-21T16:08:10.041Z,4.13
2019-03-21T16:10:38.759Z,2.60
2019-03-21T16:13:07.558Z,3.17
2019-03-21T16:15:35.969Z,5.43
2019-03-21T16:18:05.127Z,4.03
2019-03-21T16:20:33.802Z,5.03
2019-03-21T16:23:02.291Z,3.57
2019-03-21T16:25:30.694Z,3.20
2019-03-21T16:27:59.102Z,4.13
2019-03-21T16:30:27.567Z,2.93
2019-03-21T16:32:55.982Z,3.37
2019-03-21T16:35:24.402Z,3.03
2019-03-21T16:37:52.807Z,3.00
2019-03-21T16:40:21.227Z,3.27
2019-03-21T16:42:49.634Z,2.60
2019-03-21T16:45:20.988Z,3.60
2019-03-21T16:47:48.731Z,2.53
2019-03-21T16:50:17.158Z,4.70
2019-03-21T16:52:45.559Z,2.60
2019-03-21T16:55:14.874Z,4.20
2019-03-21T16:57:43.556Z,5.83
2019-03-21T17:00:20.158Z,5.03
2019-03-21T17:02:48.933Z,3.60
2019-03-21T17:05:17.355Z,2.57
2019-03-21T17:07:46.095Z,3.87
2019-03-21T17:10:16.520Z,3.03
2019-03-21T17:12:45.245Z,5.00
2019-03-21T17:15:14.745Z,7.30
2019-03-21T17:17:43.225Z,2.57
2019-03-21T17:20:15.558Z,3.53
2019-03-21T17:22:44.044Z,2.27
2019-03-21T17:25:13.282Z,2.53
2019-03-21T17:27:41.754Z,3.03
2019-03-21T17:30:15.278Z,2.43
2019-03-21T17:32:44.108Z,4.90
2019-03-21T17:35:12.899Z,4.07
2019-03-21T17:37:41.566Z,3.40
2019-03-21T17:40:12.831Z,2.90
2019-03-21T17:42:41.241Z,5.57
2019-03-21T17:45:15.084Z,5.37
2019-03-21T17:47:43.711Z,5.40
2019-03-21T17:50:14.426Z,5.27
2019-03-21T17:52:43.089Z,6.13
2019-03-21T17:55:12.470Z,3.33
2019-03-21T17:57:40.880Z,3.70
2019-03-21T18:00:15.124Z,5.23
2019-03-21T18:02:43.721Z,4.77
2019-03-21T18:05:12.506Z,3.47
2019-03-21T18:07:40.910Z,7.03
2019-03-21T18:10:24.094Z,6.10
2019-03-21T18:12:52.955Z,5.20
2019-03-21T18:15:21.379Z,4.73
2019-03-21T18:17:49.792Z,5.47
2019-03-21T18:20:18.246Z,7.23
2019-03-21T18:22:46.693Z,6.30
2019-03-21T18:25:15.117Z,5.00
2019-03-21T18:27:43.526Z,5.43
2019-03-21T18:30:13.082Z,5.10
2019-03-21T18:32:41.486Z,5.33
2019-03-21T18:35:10.911Z,4.17
2019-03-21T18:37:39.318Z,7.63
2019-03-21T18:40:10.278Z,7.17
2019-03-21T18:42:38.684Z,5.87
2019-03-21T18:45:09.603Z,4.53
2019-03-21T18:47:38.014Z,5.33
2019-03-21T18:50:09.467Z,7.67
2019-03-21T18:52:38.147Z,6.37
2019-03-21T18:55:08.403Z,6.27
2019-03-21T18:57:37.084Z,7.33
2019-03-21T19:00:08.818Z,10.47
2019-03-21T19:02:37.293Z,4.03
2019-03-21T19:05:08.438Z,4.40
2019-03-21T19:07:36.958Z,7.10
2019-03-21T19:10:07.896Z,8.37
2019-03-21T19:12:36.347Z,13.60
2019-03-21T19:15:07.730Z,12.47
2019-03-21T19:17:36.202Z,11.17
2019-03-21T19:20:07.687Z,8.20
2019-03-21T19:22:36.634Z,12.97
2019-03-21T19:25:17.842Z,6.73
2019-03-21T19:27:38.134Z,6.90
2019-03-21T19:30:15.559Z,7.43
2019-03-21T19:32:44.002Z,10.40
2019-03-21T19:35:13.272Z,5.73
2019-03-21T19:37:41.720Z,12.27
2019-03-21T19:40:13.482Z,8.67
2019-03-21T19:42:42.263Z,8.37
2019-03-21T19:45:12.646Z,5.60
2019-03-21T19:47:41.383Z,7.23
2019-03-21T19:50:15.562Z,6.50
2019-03-21T19:52:44.190Z,7.33
2019-03-21T19:55:14.080Z,10.27
2019-03-21T19:57:42.514Z,9.93
2019-03-21T20:00:14.076Z,8.00
2019-03-21T20:02:43.955Z,8.23
2019-03-21T20:05:12.860Z,7.90
2019-03-21T20:07:41.315Z,6.93
2019-03-21T20:10:18.239Z,6.73
2019-03-21T20:12:46.670Z,7.63
2019-03-21T20:15:16.930Z,7.87
2019-03-21T20:17:45.793Z,8.63
2019-03-21T20:20:18.782Z,7.73
2019-03-21T20:22:47.513Z,7.63
2019-03-21T20:25:16.828Z,8.40
2019-03-21T20:27:45.328Z,9.90
2019-03-21T20:30:19.333Z,8.27
2019-03-21T20:32:48.119Z,6.53
2019-03-21T20:35:16.732Z,8.77
2019-03-21T20:37:45.412Z,7.07
2019-03-21T20:40:17.078Z,6.60
2019-03-21T20:42:45.595Z,10.43
2019-03-21T20:45:16.426Z,11.43
2019-03-21T20:47:44.850Z,7.60
2019-03-21T20:50:14.033Z,18.37
2019-03-21T20:52:42.482Z,17.10
2019-03-21T20:55:12.468Z,19.97
2019-03-21T20:57:40.919Z,15.47
2019-03-21T21:00:15.398Z,16.67
2019-03-21T21:02:43.883Z,12.47
2019-03-21T21:05:13.059Z,13.50
2019-03-21T21:07:41.503Z,10.40
2019-03-21T21:10:11.571Z,8.50
2019-03-21T21:12:40.675Z,7.00
2019-03-21T21:15:11.726Z,8.60
2019-03-21T21:17:42.875Z,13.33
2019-03-21T21:20:13.095Z,10.00
2019-03-21T21:22:41.817Z,11.03
2019-03-21T21:25:10.247Z,8.07
2019-03-21T21:27:48.797Z,14.30
2019-03-21T21:30:11.970Z,8.07
2019-03-21T21:32:40.465Z,7.87
2019-03-21T21:35:09.735Z,6.90
2019-03-21T21:37:38.645Z,8.77
2019-03-21T21:40:09.435Z,7.77
2019-03-21T21:42:37.888Z,6.63
2019-03-21T21:45:09.635Z,7.40
2019-03-21T21:47:39.046Z,8.10
2019-03-21T21:50:10.414Z,7.43
2019-03-21T21:52:42.275Z,9.57
2019-03-21T21:55:11.695Z,8.87
2019-03-21T21:57:40.144Z,8.13
2019-03-21T22:00:21.843Z,7.23
2019-03-21T22:02:51.010Z,6.17
2019-03-21T22:05:19.467Z,11.17
2019-03-21T22:07:47.926Z,7.20
2019-03-21T22:10:16.984Z,14.03
2019-03-21T22:12:45.762Z,7.53
2019-03-21T22:15:17.672Z,10.53
2019-03-21T22:17:46.126Z,10.77
2019-03-21T22:20:16.818Z,6.00
2019-03-21T22:22:45.369Z,9.67
2019-03-21T22:25:15.252Z,9.23
2019-03-21T22:27:43.970Z,7.23
2019-03-21T22:30:17.247Z,6.63
2019-03-21T22:32:46.534Z,9.30
2019-03-21T22:35:15.402Z,6.30
2019-03-21T22:37:43.814Z,6.87
2019-03-21T22:40:16.599Z,5.97
2019-03-21T22:42:45.043Z,6.87
2019-03-21T22:45:17.700Z,6.40
2019-03-21T22:47:46.166Z,6.70
2019-03-21T22:50:16.046Z,9.17
2019-03-21T22:52:45.622Z,7.37
2019-03-21T22:55:14.509Z,6.67
2019-03-21T22:57:42.942Z,6.83
2019-03-21T23:00:14.435Z,6.80
2019-03-21T23:02:43.023Z,7.30
2019-03-21T23:05:12.017Z,7.83
2019-03-21T23:07:40.468Z,9.00
2019-03-21T23:10:10.322Z,6.90
2019-03-21T23:12:38.770Z,7.07
2019-03-21T23:15:09.543Z,8.17
2019-03-21T23:17:38.675Z,6.97
2019-03-21T23:20:10.370Z,7.30
2019-03-21T23:22:39.144Z,7.83
2019-03-21T23:25:08.934Z,6.67
2019-03-21T23:27:37.396Z,7.17
2019-03-21T23:30:11.430Z,7.47
2019-03-21T23:32:40.228Z,8.23
2019-03-21T23:35:09.212Z,7.30
2019-03-21T23:37:38.281Z,8.63
2019-03-21T23:40:17.137Z,9.73
2019-03-21T23:42:45.571Z,8.50
2019-03-21T23:45:14.658Z,8.33
2019-03-21T23:47:43.111Z,6.70
2019-03-21T23:50:13.954Z,5.87
2019-03-21T23:52:42.568Z,7.27
2019-03-21T23:55:11.536Z,8.60
2019-03-21T23:57:39.975Z,7.47
